Time;durP1;ratioP1;P1;durP2;ratioP2;P2;SDS_P1;SDS_P2;PMS_P1;PMS_P2;Temp;Humidity;BMP_temperature;BMP_pressure;BME280_temperature;BME280_humidity;BME280_pressure;Samples;Min_cycle;Max_cycle;Signal;HPM_P1;HPM_P2
2021/09/28 00:02:11;;;;;;;4.68;2.00;;;14.50;99.90;;;;;;5071048;28;20029;-48
2021/09/28 00:04:37;;;;;;;5.80;2.08;;;14.50;99.90;;;;;;5061582;28;20021;-49
2021/09/28 00:07:03;;;;;;;5.38;2.70;;;14.50;99.90;;;;;;5069717;28;20028;-46
2021/09/28 00:09:29;;;;;;;8.65;2.50;;;14.40;99.90;;;;;;5069584;28;20438;-46
2021/09/28 00:11:54;;;;;;;5.07;2.00;;;14.50;99.90;;;;;;5070779;28;20028;-49
2021/09/28 00:14:20;;;;;;;6.80;2.45;;;14.50;99.90;;;;;;5070816;28;20130;-46
2021/09/28 00:16:46;;;;;;;8.70;3.03;;;14.50;99.90;;;;;;5070249;28;20502;-46
2021/09/28 00:19:11;;;;;;;5.97;2.30;;;14.50;99.90;;;;;;5070561;28;20482;-46
2021/09/28 00:21:37;;;;;;;4.55;2.30;;;14.50;99.90;;;;;;5070897;28;20438;-46
2021/09/28 00:24:03;;;;;;;8.40;2.92;;;14.50;99.90;;;;;;5069560;28;20028;-46
2021/09/28 00:26:29;;;;;;;11.82;2.60;;;14.50;99.90;;;;;;5070909;28;20031;-49
2021/09/28 00:28:54;;;;;;;7.60;2.42;;;14.50;99.90;;;;;;5070683;28;20099;-46
2021/09/28 00:31:20;;;;;;;5.80;2.65;;;14.50;99.90;;;;;;5069423;28;20035;-46
2021/09/28 00:33:45;;;;;;;4.90;2.22;;;14.50;99.90;;;;;;5067242;28;20028;-46
2021/09/28 00:36:11;;;;;;;9.35;2.33;;;14.60;99.90;;;;;;5061201;28;20119;-48
2021/09/28 00:38:36;;;;;;;8.85;2.80;;;14.50;99.90;;;;;;5069965;28;20025;-47
2021/09/28 00:41:02;;;;;;;5.85;2.47;;;14.50;99.90;;;;;;5070340;28;20032;-49
2021/09/28 00:43:54;;;;;;;6.30;2.55;;;14.60;99.90;;;;;;5070491;28;20504;-47
2021/09/28 00:46:21;;;;;;;4.53;2.33;;;14.60;99.90;;;;;;5070297;28;20098;-46
2021/09/28 00:48:47;;;;;;;6.07;2.53;;;14.60;99.90;;;;;;5068309;28;20516;-47
2021/09/28 00:51:13;;;;;;;6.53;2.40;;;14.60;99.90;;;;;;5068975;28;20601;-47
2021/09/28 00:53:40;;;;;;;8.40;2.92;;;14.60;99.90;;;;;;5068773;28;20024;-48
2021/09/28 00:56:13;;;;;;;6.72;2.88;;;14.60;99.90;;;;;;5069948;28;20029;-47
2021/09/28 00:58:39;;;;;;;6.47;2.60;;;14.60;99.90;;;;;;5069579;28;20067;-47
2021/09/28 01:01:05;;;;;;;5.15;2.35;;;14.50;99.90;;;;;;5070199;28;20032;-47
2021/09/28 01:03:31;;;;;;;9.40;2.80;;;14.60;99.90;;;;;;5057057;28;20399;-47
2021/09/28 01:05:57;;;;;;;9.50;3.00;;;14.50;99.90;;;;;;5058794;28;20021;-46
2021/09/28 01:08:22;;;;;;;6.40;2.40;;;14.60;99.90;;;;;;5069669;28;20492;-47
2021/09/28 01:10:48;;;;;;;6.05;3.22;;;14.60;99.90;;;;;;5070104;28;20035;-47
2021/09/28 01:13:14;;;;;;;8.75;3.28;;;14.60;99.90;;;;;;5068704;28;20024;-52
2021/09/28 01:16:00;;;;;;;4.53;2.35;;;14.60;99.90;;;;;;5069988;28;20028;-52
2021/09/28 01:18:31;;;;;;;6.78;3.03;;;14.60;99.90;;;;;;5069121;28;20420;-52
2021/09/28 01:20:58;;;;;;;3.35;2.25;;;14.60;99.90;;;;;;5069721;28;20016;-52
2021/09/28 01:23:24;;;;;;;8.93;2.72;;;14.60;99.90;;;;;;5069490;28;20033;-52
2021/09/28 01:25:51;;;;;;;10.45;2.67;;;14.60;99.90;;;;;;5069430;28;20484;-52
2021/09/28 01:28:16;;;;;;;6.43;2.60;;;14.60;99.90;;;;;;5068908;28;20032;-52
2021/09/28 01:30:42;;;;;;;7.78;2.60;;;14.70;99.90;;;;;;5069596;28;20074;-52
2021/09/28 01:33:07;;;;;;;7.78;2.42;;;14.60;99.90;;;;;;5064354;28;20024;-52
2021/09/28 01:35:35;;;;;;;8.20;2.65;;;14.60;99.90;;;;;;5052814;28;20037;-52
2021/09/28 01:38:00;;;;;;;8.98;2.03;;;14.60;99.90;;;;;;5067818;28;20020;-52
2021/09/28 01:40:26;;;;;;;4.97;2.42;;;14.60;99.90;;;;;;5069323;28;20497;-52
2021/09/28 01:42:51;;;;;;;5.82;2.00;;;14.60;99.90;;;;;;5069179;28;20071;-52
2021/09/28 01:45:17;;;;;;;7.18;3.22;;;14.60;99.90;;;;;;5069050;28;20064;-52
2021/09/28 01:47:43;;;;;;;4.88;2.35;;;14.60;99.90;;;;;;5068364;28;20233;-52
2021/09/28 01:50:09;;;;;;;6.03;2.60;;;14.60;99.90;;;;;;5067575;28;20039;-52
2021/09/28 01:52:36;;;;;;;5.93;2.50;;;14.60;99.90;;;;;;5069472;28;20156;-52
2021/09/28 01:55:04;;;;;;;11.52;3.10;;;14.60;99.90;;;;;;5069251;28;20025;-52
2021/09/28 01:57:31;;;;;;;9.07;2.67;;;14.60;99.90;;;;;;5068336;28;20058;-52
2021/09/28 01:59:56;;;;;;;5.03;2.55;;;14.60;99.90;;;;;;5069147;28;20016;-52
2021/09/28 02:02:22;;;;;;;7.07;2.83;;;14.60;99.90;;;;;;5068683;28;20494;-52
2021/09/28 02:04:47;;;;;;;4.82;2.88;;;14.60;99.90;;;;;;5052744;28;20032;-53
2021/09/28 02:07:13;;;;;;;11.20;3.45;;;14.60;99.90;;;;;;5060599;28;20037;-52
2021/09/28 02:09:38;;;;;;;13.27;3.50;;;14.60;99.90;;;;;;5068768;28;20028;-53
2021/09/28 02:12:04;;;;;;;10.65;3.92;;;14.60;99.90;;;;;;5068825;28;20031;-51
2021/09/28 02:14:30;;;;;;;10.80;4.65;;;14.60;99.90;;;;;;5068553;28;20121;-52
2021/09/28 02:16:57;;;;;;;6.43;3.92;;;14.60;99.90;;;;;;5067977;28;20051;-52
2021/09/28 02:19:22;;;;;;;11.05;5.03;;;14.60;99.90;;;;;;5068620;28;20040;-52
2021/09/28 02:21:48;;;;;;;7.65;4.85;;;14.60;99.90;;;;;;5068710;28;20055;-52
2021/09/28 02:24:15;;;;;;;10.60;4.90;;;14.60;99.90;;;;;;5068649;28;20078;-52
2021/09/28 02:26:41;;;;;;;8.63;4.88;;;14.60;99.90;;;;;;5067919;28;20024;-52
2021/09/28 02:29:07;;;;;;;11.50;5.07;;;14.60;99.90;;;;;;5068487;28;20106;-52
2021/09/28 02:31:32;;;;;;;8.95;5.18;;;14.60;99.90;;;;;;5068825;28;20111;-52
2021/09/28 02:33:58;;;;;;;14.25;5.40;;;14.60;99.90;;;;;;5055499;28;20400;-52
2021/09/28 02:36:23;;;;;;;8.48;4.50;;;14.50;99.90;;;;;;5059674;28;20068;-51
2021/09/28 02:38:49;;;;;;;13.02;5.15;;;14.50;99.90;;;;;;5067849;28;20036;-52
2021/09/28 02:41:15;;;;;;;12.05;4.47;;;14.50;99.90;;;;;;5068446;28;20025;-51
2021/09/28 02:43:41;;;;;;;9.65;5.32;;;14.40;99.90;;;;;;5068489;28;20021;-51
2021/09/28 02:46:06;;;;;;;10.57;5.50;;;14.40;99.90;;;;;;5068059;28;20055;-51
2021/09/28 02:48:32;;;;;;;14.43;5.50;;;14.30;99.90;;;;;;5067838;28;20033;-52
2021/09/28 02:50:58;;;;;;;11.85;5.43;;;14.30;99.90;;;;;;5068434;28;20036;-51
2021/09/28 02:53:24;;;;;;;8.88;4.80;;;14.20;99.90;;;;;;5068633;28;20047;-52
2021/09/28 02:55:49;;;;;;;8.57;4.43;;;14.20;99.90;;;;;;5069982;28;20371;-51
2021/09/28 02:58:15;;;;;;;10.90;5.70;;;14.20;99.90;;;;;;5070837;28;20443;-51
2021/09/28 03:00:40;;;;;;;11.15;5.47;;;14.20;99.90;;;;;;5072183;28;20028;-52
2021/09/28 03:03:06;;;;;;;7.63;4.28;;;14.10;99.90;;;;;;5069404;28;20046;-51
2021/09/28 03:05:31;;;;;;;11.25;5.22;;;14.10;99.90;;;;;;5055420;28;20414;-52
2021/09/28 03:07:57;;;;;;;8.93;4.90;;;14.10;99.90;;;;;;5070009;28;20028;-52
2021/09/28 03:10:23;;;;;;;9.13;4.70;;;14.10;99.90;;;;;;5072169;28;20025;-51
2021/09/28 03:12:48;;;;;;;11.90;5.53;;;14.10;99.90;;;;;;5072024;28;20036;-52
2021/09/28 03:15:14;;;;;;;12.10;5.60;;;14.00;99.90;;;;;;5070855;28;20021;-52
2021/09/28 03:17:40;;;;;;;14.90;6.03;;;14.10;99.90;;;;;;5071320;28;20261;-52
2021/09/28 03:20:06;;;;;;;15.85;6.97;;;14.10;99.90;;;;;;5071666;28;20067;-52
2021/09/28 03:22:31;;;;;;;10.73;6.63;;;14.10;99.90;;;;;;5071934;28;20019;-52
2021/09/28 03:24:57;;;;;;;8.82;6.75;;;14.00;99.90;;;;;;5072069;28;20480;-52
2021/09/28 03:27:22;;;;;;;18.23;8.40;;;14.00;99.90;;;;;;5071560;28;20484;-51
2021/09/28 03:29:48;;;;;;;13.38;7.93;;;14.00;99.90;;;;;;5070918;28;20028;-52
2021/09/28 03:32:14;;;;;;;12.48;7.57;;;14.00;99.90;;;;;;5071864;28;20059;-52
2021/09/28 03:34:39;;;;;;;16.95;9.02;;;14.00;99.90;;;;;;5061406;28;20028;-51
2021/09/28 03:37:05;;;;;;;17.52;8.43;;;14.00;99.90;;;;;;5062483;28;20474;-51
2021/09/28 03:39:32;;;;;;;14.43;8.07;;;14.00;99.90;;;;;;5071573;28;20033;-52
2021/09/28 03:41:58;;;;;;;20.83;9.32;;;14.00;99.90;;;;;;5071575;28;20451;-52
2021/09/28 03:44:23;;;;;;;16.00;8.38;;;14.00;99.90;;;;;;5066589;28;20021;-52
2021/09/28 03:46:49;;;;;;;17.23;8.95;;;14.00;99.90;;;;;;5031443;28;20069;-52
2021/09/28 03:49:14;;;;;;;16.42;8.48;;;14.00;99.90;;;;;;5044740;28;20017;-50
2021/09/28 03:51:40;;;;;;;15.90;9.00;;;14.00;99.90;;;;;;5049468;28;20033;-50
2021/09/28 03:54:05;;;;;;;16.58;10.75;;;14.00;99.90;;;;;;5034472;28;20029;-51
2021/09/28 03:56:31;;;;;;;17.92;10.32;;;14.00;99.90;;;;;;5034528;28;20271;-50
2021/09/28 03:58:56;;;;;;;18.58;11.57;;;14.00;99.90;;;;;;5048291;28;20183;-50
2021/09/28 04:01:22;;;;;;;16.27;10.13;;;14.00;99.90;;;;;;5050700;28;20029;-50
2021/09/28 04:03:47;;;;;;;21.48;10.82;;;14.00;99.90;;;;;;5046169;28;20025;-48
2021/09/28 04:06:13;;;;;;;21.00;11.10;;;14.00;99.90;;;;;;5062396;28;20149;-47
2021/09/28 04:08:38;;;;;;;21.75;11.18;;;13.90;99.90;;;;;;5070233;28;20497;-50
2021/09/28 04:11:04;;;;;;;19.10;11.13;;;13.90;99.90;;;;;;5070806;28;20063;-49
2021/09/28 04:13:30;;;;;;;18.95;9.90;;;13.90;99.90;;;;;;5070627;28;20063;-51
2021/09/28 04:15:55;;;;;;;22.15;11.73;;;13.90;99.90;;;;;;5070311;28;20436;-50
2021/09/28 04:18:21;;;;;;;18.63;11.40;;;13.90;99.90;;;;;;5070336;28;20027;-51
2021/09/28 04:20:46;;;;;;;22.25;11.35;;;13.80;99.90;;;;;;5070599;28;20092;-51
2021/09/28 04:23:14;;;;;;;19.33;11.40;;;13.80;99.90;;;;;;5070361;28;20029;-51
2021/09/28 04:25:41;;;;;;;20.83;10.82;;;13.70;99.90;;;;;;5070875;28;20024;-50
2021/09/28 04:28:08;;;;;;;18.98;11.40;;;13.70;99.90;;;;;;5070153;28;20047;-51
2021/09/28 04:30:34;;;;;;;25.48;12.48;;;13.70;99.90;;;;;;5070912;28;20031;-52
2021/09/28 04:32:59;;;;;;;19.10;11.45;;;13.70;99.90;;;;;;5069268;28;20452;-51
2021/09/28 04:35:25;;;;;;;21.13;12.57;;;13.70;99.90;;;;;;5052887;28;20497;-48
2021/09/28 04:37:50;;;;;;;25.83;13.60;;;13.70;99.90;;;;;;5067107;28;20044;-50
2021/09/28 04:40:16;;;;;;;22.70;13.30;;;13.60;99.90;;;;;;5070482;28;20328;-50
2021/09/28 04:42:42;;;;;;;28.27;12.98;;;13.60;99.90;;;;;;5069119;28;20021;-50
2021/09/28 04:45:08;;;;;;;21.38;13.60;;;13.60;99.90;;;;;;5071031;28;20034;-50
2021/09/28 04:47:34;;;;;;;22.13;12.85;;;13.60;99.90;;;;;;5068140;28;20400;-50
2021/09/28 04:49:59;;;;;;;15.40;11.88;;;13.60;99.90;;;;;;5068717;28;20032;-51
2021/09/28 04:52:25;;;;;;;18.02;12.00;;;13.60;99.90;;;;;;5070186;28;20032;-51
2021/09/28 04:54:50;;;;;;;25.00;14.60;;;13.60;99.90;;;;;;5071156;28;20033;-51
2021/09/28 04:57:16;;;;;;;22.50;11.07;;;13.60;99.90;;;;;;5070288;28;20036;-51
2021/09/28 04:59:41;;;;;;;18.48;12.27;;;13.60;99.90;;;;;;5071383;28;20020;-51
2021/09/28 05:02:07;;;;;;;24.35;13.90;;;13.60;99.90;;;;;;5071630;28;20032;-51
2021/09/28 05:04:33;;;;;;;20.98;12.48;;;13.60;99.90;;;;;;5060785;28;20025;-51
2021/09/28 05:06:58;;;;;;;23.63;13.02;;;13.60;99.90;;;;;;5062297;28;20032;-51
2021/09/28 05:09:23;;;;;;;20.23;13.57;;;13.60;99.90;;;;;;5071321;28;20037;-51
2021/09/28 05:11:49;;;;;;;19.30;12.77;;;13.60;99.90;;;;;;5071057;28;20402;-51
2021/09/28 05:14:16;;;;;;;22.55;13.38;;;13.60;99.90;;;;;;5071217;28;20051;-49
2021/09/28 05:16:41;;;;;;;16.67;12.02;;;13.50;99.90;;;;;;5070480;28;20512;-48
2021/09/28 05:19:07;;;;;;;19.10;14.02;;;13.50;99.90;;;;;;5070656;28;20028;-51
2021/09/28 05:21:33;;;;;;;26.50;14.55;;;13.50;99.90;;;;;;5065216;28;20066;-51
2021/09/28 05:23:59;;;;;;;23.08;14.55;;;13.50;99.90;;;;;;5037667;28;20036;-51
2021/09/28 05:26:24;;;;;;;25.90;14.30;;;13.40;99.90;;;;;;5047765;28;20024;-50
2021/09/28 05:28:50;;;;;;;22.35;13.07;;;13.40;99.90;;;;;;5052965;28;20039;-50
2021/09/28 05:31:17;;;;;;;21.92;13.20;;;13.40;99.90;;;;;;5051005;28;20151;-52
2021/09/28 05:33:43;;;;;;;24.08;14.40;;;13.40;99.90;;;;;;5037161;28;20042;-51
2021/09/28 05:36:08;;;;;;;18.63;12.48;;;13.50;99.90;;;;;;5049065;28;20474;-51
2021/09/28 05:38:34;;;;;;;16.42;12.55;;;13.40;99.90;;;;;;5054713;28;20029;-50
2021/09/28 05:41:03;;;;;;;17.55;12.77;;;13.40;99.90;;;;;;5060711;28;20028;-52
2021/09/28 05:43:29;;;;;;;30.42;14.30;;;13.40;99.90;;;;;;5054278;28;20077;-51
2021/09/28 05:45:55;;;;;;;19.45;12.27;;;13.30;99.90;;;;;;5040986;28;20096;-50
2021/09/28 05:48:20;;;;;;;19.75;13.45;;;13.40;99.90;;;;;;5060029;28;20359;-52
2021/09/28 05:50:46;;;;;;;20.60;12.10;;;13.30;99.90;;;;;;5062498;28;20169;-51
2021/09/28 05:53:12;;;;;;;18.10;12.25;;;13.30;99.90;;;;;;5042661;28;20479;-49
2021/09/28 05:55:38;;;;;;;24.10;15.27;;;13.30;99.90;;;;;;5039376;28;20051;-51
2021/09/28 05:58:04;;;;;;;19.60;13.35;;;13.30;99.90;;;;;;5040359;28;20094;-50
2021/09/28 06:00:30;;;;;;;17.92;11.63;;;13.20;99.90;;;;;;5045045;28;20110;-51
2021/09/28 06:02:56;;;;;;;22.40;13.13;;;13.30;99.90;;;;;;5040952;28;20017;-50
2021/09/28 06:05:22;;;;;;;18.80;11.57;;;13.30;99.90;;;;;;5045254;28;20028;-51
2021/09/28 06:07:48;;;;;;;21.40;12.77;;;13.30;99.90;;;;;;5039456;28;20025;-51
2021/09/28 06:10:13;;;;;;;21.50;12.93;;;13.30;99.90;;;;;;5044343;28;20036;-52
2021/09/28 06:12:40;;;;;;;23.48;12.27;;;13.40;99.90;;;;;;5038322;28;20550;-50
2021/09/28 06:15:07;;;;;;;16.17;10.13;;;13.40;99.90;;;;;;5035758;28;20055;-50
2021/09/28 06:17:32;;;;;;;22.40;11.73;;;13.40;99.90;;;;;;5043671;28;20043;-52
2021/09/28 06:19:58;;;;;;;17.92;9.90;;;13.40;99.90;;;;;;5044872;28;20029;-51
2021/09/28 06:22:27;;;;;;;14.50;8.70;;;13.40;99.90;;;;;;5042941;28;20029;-50
2021/09/28 06:24:56;;;;;;;14.10;9.30;;;13.50;99.90;;;;;;5044927;28;20021;-52
2021/09/28 06:27:23;;;;;;;19.20;8.80;;;13.50;99.90;;;;;;5036300;28;20682;-51
2021/09/28 06:29:49;;;;;;;21.25;9.38;;;13.50;99.90;;;;;;5038580;28;20021;-51
2021/09/28 06:32:17;;;;;;;16.02;9.35;;;13.40;99.90;;;;;;5037963;28;20392;-51
2021/09/28 06:34:43;;;;;;;11.95;8.40;;;13.50;99.90;;;;;;5041839;28;20021;-51
2021/09/28 06:37:09;;;;;;;15.07;8.35;;;13.40;99.90;;;;;;5041938;28;20087;-50
2021/09/28 06:39:34;;;;;;;16.25;6.95;;;13.40;99.90;;;;;;5039735;28;20032;-51
2021/09/28 06:42:00;;;;;;;11.45;7.50;;;13.40;99.90;;;;;;5038074;28;20014;-49
2021/09/28 06:44:28;;;;;;;13.88;7.68;;;13.40;99.90;;;;;;5039142;28;20045;-51
2021/09/28 06:46:54;;;;;;;16.80;7.38;;;13.40;99.90;;;;;;5037975;28;20029;-51
2021/09/28 06:49:20;;;;;;;19.90;9.80;;;13.40;99.90;;;;;;5039593;28;20100;-50
2021/09/28 06:51:45;;;;;;;14.77;6.68;;;13.40;99.90;;;;;;5038036;28;20105;-52
2021/09/28 06:54:11;;;;;;;23.50;7.38;;;13.40;99.90;;;;;;5039014;28;20498;-51
2021/09/28 06:56:37;;;;;;;14.10;7.10;;;13.40;99.90;;;;;;5043982;28;20041;-50
2021/09/28 06:59:08;;;;;;;10.13;6.82;;;13.40;99.90;;;;;;5046992;28;20025;-51
2021/09/28 07:01:34;;;;;;;14.50;6.72;;;13.50;99.90;;;;;;5039789;28;20475;-50
2021/09/28 07:04:00;;;;;;;14.48;6.60;;;13.50;99.90;;;;;;5039128;28;20097;-48
2021/09/28 07:06:27;;;;;;;12.73;5.88;;;13.60;99.90;;;;;;5046089;28;20525;-51
2021/09/28 07:08:53;;;;;;;14.68;6.18;;;13.60;99.90;;;;;;5037925;28;20024;-49
2021/09/28 07:11:19;;;;;;;14.77;6.07;;;13.60;99.90;;;;;;5053532;28;20379;-52
2021/09/28 07:13:48;;;;;;;9.07;5.32;;;13.60;99.90;;;;;;5038439;28;20025;-51
2021/09/28 07:16:14;;;;;;;11.07;6.80;;;13.70;99.90;;;;;;5038408;28;20025;-51
2021/09/28 07:18:40;;;;;;;12.15;5.22;;;13.70;99.90;;;;;;5039687;28;20053;-51
2021/09/28 07:21:06;;;;;;;12.88;5.78;;;13.70;99.90;;;;;;5039502;28;20215;-49
2021/09/28 07:23:32;;;;;;;14.32;6.28;;;13.70;99.90;;;;;;5039620;28;20533;-50
2021/09/28 07:25:58;;;;;;;13.10;5.45;;;13.80;99.90;;;;;;5050970;28;20082;-50
2021/09/28 07:28:24;;;;;;;12.27;6.60;;;13.80;99.90;;;;;;5061554;28;20040;-49
2021/09/28 07:30:50;;;;;;;15.93;7.03;;;13.80;99.90;;;;;;5067834;28;20554;-51
2021/09/28 07:33:16;;;;;;;17.52;6.47;;;13.80;99.90;;;;;;5064556;28;20112;-50
2021/09/28 07:35:44;;;;;;;8.65;5.80;;;13.90;99.90;;;;;;5039649;28;20159;-51
2021/09/28 07:38:10;;;;;;;16.27;6.13;;;13.90;99.90;;;;;;5036986;28;20026;-51
2021/09/28 07:40:35;;;;;;;11.50;6.25;;;13.90;99.90;;;;;;5036091;28;20022;-48
2021/09/28 07:43:01;;;;;;;13.50;6.15;;;13.90;99.90;;;;;;5039906;28;20075;-51
2021/09/28 07:45:26;;;;;;;14.27;6.10;;;13.90;99.90;;;;;;5040818;28;20112;-49
2021/09/28 07:47:52;;;;;;;16.17;5.82;;;14.00;99.90;;;;;;5040378;28;20575;-51
2021/09/28 07:50:18;;;;;;;15.73;6.05;;;14.00;99.90;;;;;;5041051;28;20043;-51
2021/09/28 07:52:44;;;;;;;13.75;5.88;;;14.00;99.90;;;;;;5044429;28;20036;-51
2021/09/28 07:55:10;;;;;;;13.50;7.25;;;14.10;99.90;;;;;;5046282;28;20050;-51
2021/09/28 07:57:36;;;;;;;11.48;6.22;;;14.20;99.90;;;;;;5040424;28;20117;-52
2021/09/28 08:00:03;;;;;;;20.45;8.52;;;14.20;99.90;;;;;;5041038;28;20104;-51
2021/09/28 08:02:30;;;;;;;33.63;21.15;;;14.30;99.90;;;;;;5043481;28;20605;-51
2021/09/28 08:04:56;;;;;;;16.90;9.10;;;14.40;99.90;;;;;;5046994;28;20114;-50
2021/09/28 08:07:21;;;;;;;15.77;5.65;;;14.50;99.90;;;;;;5045725;28;20112;-50
2021/09/28 08:09:47;;;;;;;18.00;5.88;;;14.50;99.90;;;;;;5041643;28;20025;-51
2021/09/28 08:12:12;;;;;;;10.13;5.53;;;14.60;99.90;;;;;;5042925;28;20025;-51
2021/09/28 08:14:38;;;;;;;10.32;5.45;;;14.80;99.90;;;;;;5044004;28;20037;-50
2021/09/28 08:17:04;;;;;;;10.52;5.45;;;14.90;99.90;;;;;;5038704;28;20487;-51
2021/09/28 08:19:32;;;;;;;8.80;5.40;;;15.00;99.90;;;;;;5050144;28;20021;-51
2021/09/28 08:21:58;;;;;;;8.10;4.53;;;15.10;99.90;;;;;;5050740;28;20088;-51
2021/09/28 08:24:24;;;;;;;8.27;4.03;;;15.40;99.90;;;;;;5042013;28;20052;-51
2021/09/28 08:29:33;;;;;;;8.98;4.00;;;17.60;99.90;;;;;;5057942;28;20052;-52
2021/09/28 08:31:59;;;;;;;5.28;3.05;;;19.70;99.90;;;;;;5047884;28;20656;-52
2021/09/28 08:34:24;;;;;;;5.35;2.50;;;21.40;99.90;;;;;;5040413;28;20045;-53
2021/09/28 08:36:50;;;;;;;5.72;2.78;;;22.50;99.90;;;;;;5050595;28;20041;-53
2021/09/28 08:39:16;;;;;;;6.70;2.58;;;23.80;96.80;;;;;;5070558;28;20670;-52
2021/09/28 08:41:47;;;;;;;4.93;2.10;;;24.90;93.50;;;;;;5070354;28;20035;-51
2021/09/28 08:44:14;;;;;;;4.95;2.03;;;26.10;89.60;;;;;;5059122;28;20108;-51
2021/09/28 08:46:40;;;;;;;4.78;1.52;;;26.80;82.80;;;;;;5045905;28;20071;-51
2021/09/28 08:49:06;;;;;;;5.70;2.78;;;27.50;78.40;;;;;;5053061;28;20033;-51
2021/09/28 08:51:32;;;;;;;5.80;1.90;;;28.30;71.80;;;;;;5050346;28;20316;-51
2021/09/28 08:53:59;;;;;;;4.70;2.08;;;27.80;71.70;;;;;;5047351;28;20025;-51
2021/09/28 08:56:24;;;;;;;6.45;2.03;;;27.80;68.90;;;;;;5033269;28;20259;-52
2021/09/28 08:58:54;;;;;;;6.32;2.30;;;28.60;68.90;;;;;;5050180;28;20023;-52
2021/09/28 09:01:20;;;;;;;4.82;1.63;;;29.00;64.60;;;;;;5063432;28;20078;-51
2021/09/28 09:03:46;;;;;;;5.70;1.85;;;29.50;64.90;;;;;;5054870;28;20227;-52
2021/09/28 09:06:11;;;;;;;5.13;2.10;;;29.60;63.30;;;;;;5024984;28;20040;-53
2021/09/28 09:08:38;;;;;;;3.40;1.65;;;30.30;61.40;;;;;;5053734;28;20053;-52
2021/09/28 09:11:09;;;;;;;5.63;2.35;;;30.60;61.00;;;;;;5068675;28;20119;-52
2021/09/28 09:13:45;;;;;;;3.45;1.38;;;30.80;59.00;;;;;;5059121;28;20078;-52
2021/09/28 09:16:13;;;;;;;4.25;1.90;;;30.60;57.80;;;;;;5038256;28;20028;-53
2021/09/28 09:18:41;;;;;;;6.18;2.47;;;31.00;57.80;;;;;;5050867;28;20104;-52
2021/09/28 09:21:08;;;;;;;6.30;1.77;;;31.30;56.30;;;;;;5050415;28;20037;-52
2021/09/28 09:23:36;;;;;;;6.45;1.80;;;31.60;56.50;;;;;;5039786;28;20025;-52
2021/09/28 09:26:12;;;;;;;4.88;1.75;;;31.70;56.80;;;;;;5037726;28;20032;-51
2021/09/28 09:28:50;;;;;;;7.65;2.00;;;31.50;56.30;;;;;;5051463;28;20024;-51
2021/09/28 09:31:37;;;;;;;4.85;1.60;;;32.00;54.80;;;;;;5055030;28;20028;-51
2021/09/28 09:34:06;;;;;;;4.68;1.40;;;32.40;54.50;;;;;;5051715;28;20045;-51
2021/09/28 09:36:32;;;;;;;8.35;1.73;;;32.10;53.10;;;;;;5047606;28;20039;-52
2021/09/28 09:38:57;;;;;;;1.92;1.33;;;32.40;52.70;;;;;;5051596;28;20033;-52
2021/09/28 09:41:32;;;;;;;7.30;1.80;;;32.70;52.30;;;;;;5050847;28;20029;-52
2021/09/28 09:44:09;;;;;;;4.20;1.58;;;32.70;50.30;;;;;;5044219;28;20056;-51
2021/09/28 09:46:40;;;;;;;6.45;1.58;;;33.80;51.70;;;;;;5052305;28;20032;-52
2021/09/28 09:49:06;;;;;;;4.03;1.50;;;33.20;49.90;;;;;;5058406;28;20024;-51
2021/09/28 09:51:40;;;;;;;4.75;1.23;;;33.20;50.00;;;;;;5053304;28;20100;-51
2021/09/28 09:54:06;;;;;;;4.32;1.88;;;33.20;48.80;;;;;;5039985;28;20025;-52
2021/09/28 09:56:42;;;;;;;5.82;1.58;;;33.00;48.30;;;;;;5038512;28;20064;-51
2021/09/28 09:59:08;;;;;;;5.30;1.50;;;33.20;49.70;;;;;;5038355;28;20045;-51
2021/09/28 10:01:36;;;;;;;7.03;1.67;;;33.50;49.50;;;;;;5040647;28;20401;-51
2021/09/28 10:04:06;;;;;;;1.58;1.02;;;32.80;48.20;;;;;;5045300;28;20025;-52
2021/09/28 10:06:32;;;;;;;2.38;1.20;;;33.00;47.80;;;;;;5043546;28;20028;-52
2021/09/28 10:09:00;;;;;;;4.13;1.02;;;33.00;48.90;;;;;;5062374;28;20033;-52
2021/09/28 10:11:29;;;;;;;4.18;1.25;;;31.90;48.20;;;;;;5060349;28;20067;-51
2021/09/28 10:13:57;;;;;;;3.58;1.15;;;31.60;48.90;;;;;;5053676;28;20033;-51
2021/09/28 10:16:33;;;;;;;2.53;1.17;;;31.90;49.00;;;;;;5060374;28;20032;-51
2021/09/28 10:18:59;;;;;;;3.35;1.20;;;30.80;49.70;;;;;;5046711;28;20022;-52
2021/09/28 10:21:42;;;;;;;2.78;1.15;;;29.40;51.70;;;;;;5048158;28;20013;-52
2021/09/28 10:24:17;;;;;;;7.47;1.52;;;28.70;53.30;;;;;;5042140;28;20032;-50
2021/09/28 10:26:43;;;;;;;5.40;1.13;;;27.40;54.90;;;;;;5040424;28;20041;-50
2021/09/28 10:29:36;;;;;;;2.85;1.00;;;26.20;56.90;;;;;;5068404;28;20051;-50
2021/09/28 10:32:26;;;;;;;6.15;1.77;;;26.50;56.30;;;;;;5069631;28;20033;-50
2021/09/28 10:35:06;;;;;;;6.53;1.30;;;27.50;55.50;;;;;;5054062;28;20053;-50
2021/09/28 10:37:47;;;;;;;5.50;1.00;;;29.60;53.70;;;;;;5050018;28;20033;-50
2021/09/28 10:40:21;;;;;;;3.47;1.20;;;30.60;49.90;;;;;;5034547;28;20407;-51
2021/09/28 10:42:51;;;;;;;4.05;1.30;;;31.10;50.20;;;;;;5047881;28;20363;-52
2021/09/28 10:45:18;;;;;;;3.42;1.20;;;31.00;47.20;;;;;;5048699;28;20044;-51
2021/09/28 10:47:45;;;;;;;4.30;1.10;;;31.70;48.00;;;;;;5030158;28;20033;-51
2021/09/28 10:50:37;;;;;;;5.07;1.20;;;31.40;48.00;;;;;;5029456;28;20109;-52
2021/09/28 10:53:05;;;;;;;2.45;0.90;;;30.30;50.00;;;;;;5032599;28;20040;-50
2021/09/28 10:55:39;;;;;;;6.28;3.45;;;29.70;48.80;;;;;;5042554;28;20049;-50
2021/09/28 11:00:42;;;;;;;4.57;1.17;;;31.00;50.10;;;;;;5029986;28;20104;-50
2021/09/28 11:03:08;;;;;;;3.20;1.02;;;31.70;50.50;;;;;;5030169;28;20467;-50
2021/09/28 11:05:44;;;;;;;3.20;1.15;;;31.30;48.10;;;;;;5041336;28;20055;-50
2021/09/28 11:08:12;;;;;;;5.30;0.90;;;31.20;47.40;;;;;;5047733;28;20100;-50
2021/09/28 11:10:38;;;;;;;5.00;1.17;;;31.30;47.30;;;;;;5052125;28;20023;-53
2021/09/28 11:13:11;;;;;;;4.28;1.10;;;30.30;47.40;;;;;;5055109;28;20028;-50
2021/09/28 11:15:38;;;;;;;4.95;1.33;;;29.80;50.20;;;;;;5052286;28;20046;-50
2021/09/28 11:18:11;;;;;;;1.67;1.00;;;30.80;50.30;;;;;;5051262;28;20533;-50
2021/09/28 11:20:38;;;;;;;1.85;0.80;;;30.70;47.90;;;;;;5052992;28;20029;-50
2021/09/28 11:23:10;;;;;;;4.70;1.10;;;29.40;48.50;;;;;;5040323;28;20025;-49
2021/09/28 11:25:37;;;;;;;4.15;0.93;;;27.80;51.10;;;;;;5047656;28;20014;-49
2021/09/28 11:28:03;;;;;;;3.08;1.45;;;26.30;53.90;;;;;;5049015;28;20025;-49
2021/09/28 11:30:34;;;;;;;5.13;1.23;;;25.50;55.10;;;;;;5054542;28;20052;-50
2021/09/28 11:33:04;;;;;;;4.90;1.08;;;25.90;53.30;;;;;;5057635;28;20025;-49
2021/09/28 11:35:30;;;;;;;4.82;1.20;;;26.50;53.40;;;;;;5048709;28;20056;-50
2021/09/28 11:37:59;;;;;;;1.80;0.95;;;27.70;53.10;;;;;;5058828;28;20032;-49
2021/09/28 11:40:36;;;;;;;3.55;0.95;;;27.20;52.20;;;;;;5053091;28;20017;-49
2021/09/28 11:43:19;;;;;;;2.40;1.00;;;27.50;53.20;;;;;;5051714;28;20025;-49
2021/09/28 11:45:46;;;;;;;3.30;1.17;;;26.40;53.40;;;;;;5037577;28;20037;-48
2021/09/28 11:48:11;;;;;;;2.78;0.98;;;25.30;54.10;;;;;;5049511;28;20082;-49
2021/09/28 11:50:38;;;;;;;2.28;1.00;;;24.30;56.60;;;;;;5051779;28;20021;-51
2021/09/28 11:53:07;;;;;;;4.63;1.13;;;23.60;58.20;;;;;;5052727;28;20032;-48
2021/09/28 11:55:33;;;;;;;4.75;1.40;;;23.10;60.50;;;;;;5067341;28;20032;-48
2021/09/28 11:57:59;;;;;;;3.05;1.33;;;22.60;62.80;;;;;;5071228;28;20417;-49
2021/09/28 12:00:24;;;;;;;2.83;1.02;;;22.40;62.90;;;;;;5038857;28;20041;-50
2021/09/28 12:02:50;;;;;;;4.20;1.20;;;22.50;64.10;;;;;;5034021;28;20483;-52
2021/09/28 12:05:27;;;;;;;5.38;1.35;;;23.60;60.10;;;;;;5052985;28;20032;-52
2021/09/28 12:08:00;;;;;;;4.50;1.48;;;24.60;59.10;;;;;;5056738;28;20032;-48
2021/09/28 12:10:33;;;;;;;8.48;1.60;;;25.40;60.10;;;;;;5047690;28;20025;-50
2021/09/28 12:13:13;;;;;;;6.15;1.58;;;26.00;55.90;;;;;;5057685;28;20112;-49
2021/09/28 12:16:07;;;;;;;3.88;0.90;;;26.10;55.20;;;;;;5053871;28;20036;-50
2021/09/28 12:18:33;;;;;;;2.97;1.00;;;26.40;53.20;;;;;;5030770;28;20041;-50
2021/09/28 12:21:19;;;;;;;1.85;1.13;;;26.20;52.80;;;;;;5031380;28;20022;-49
2021/09/28 12:23:46;;;;;;;5.47;1.27;;;25.60;54.60;;;;;;5032144;28;20022;-48
2021/09/28 12:26:23;;;;;;;5.30;1.10;;;25.70;56.80;;;;;;5035567;28;20074;-50
2021/09/28 12:28:48;;;;;;;2.50;0.90;;;25.20;56.50;;;;;;5050752;28;20032;-50
2021/09/28 12:31:14;;;;;;;3.03;1.35;;;25.10;58.70;;;;;;5056775;28;20037;-49
2021/09/28 12:33:41;;;;;;;5.95;1.42;;;25.00;58.00;;;;;;5053386;28;20032;-49
2021/09/28 12:36:07;;;;;;;4.55;1.33;;;24.70;59.60;;;;;;5055623;28;20147;-50
2021/09/28 12:38:33;;;;;;;4.93;1.23;;;24.20;59.40;;;;;;5047897;28;20021;-49
2021/09/28 12:41:07;;;;;;;2.35;1.00;;;24.10;57.80;;;;;;5059536;28;20570;-47
2021/09/28 12:43:34;;;;;;;4.05;1.40;;;23.70;60.20;;;;;;5060431;28;20123;-50
2021/09/28 12:46:02;;;;;;;6.32;1.83;;;23.40;60.50;;;;;;5048583;28;20462;-49
2021/09/28 12:48:39;;;;;;;5.13;1.40;;;23.40;61.80;;;;;;5049575;28;20025;-50